Time,TemperatureF,DewpointF,PressureIn,WindDirection,WindDirectionDegrees,WindSpeedMPH,WindSpeedGustMPH,Humidity,HourlyPrecipIn,Conditions,Clouds,dailyrainin,SolarRadiationWatts/m^2,SoftwareType,DateUTC
2013-02-23 00:21:00,1.0,-6.0,-100.00,NW,304,5.0,11.0,70,0.00,,,0.03,0.000000,,2013-02-23 07:21:00,
2013-02-23 00:32:00,1.0,-6.0,-100.00,NW,304,5.0,11.0,70,0.00,,,0.03,0.000000,,2013-02-23 07:32:00,
2013-02-23 00:42:00,1.0,-6.0,-100.00,NW,304,5.0,11.0,70,0.00,,,0.03,0.000000,,2013-02-23 07:42:00,
2013-02-23 00:51:00,1.0,-6.0,-100.00,NW,304,5.0,11.0,70,0.00,,,0.03,0.000000,,2013-02-23 07:51:00,
2013-02-23 01:21:00,3.0,-6.0,-100.00,NW,309,10.0,17.0,64,0.00,,,0.03,0.000000,,2013-02-23 08:21:00,
2013-02-23 01:31:00,3.0,-6.0,-100.00,NW,309,10.0,17.0,64,0.00,,,0.03,0.000000,,2013-02-23 08:31:00,
2013-02-23 01:42:00,3.0,-6.0,-100.00,NW,309,10.0,17.0,64,0.00,,,0.03,0.000000,,2013-02-23 08:42:00,
2013-02-23 01:52:00,3.0,-6.0,-100.00,NW,309,10.0,17.0,64,0.00,,,0.03,0.000000,,2013-02-23 08:52:00,
2013-02-23 02:11:00,2.0,-8.0,-100.00,NW,304,6.0,13.0,61,0.00,,,0.03,0.000000,,2013-02-23 09:11:00,
2013-02-23 02:21:00,2.0,-8.0,-100.00,NW,304,6.0,13.0,61,0.00,,,0.03,0.000000,,2013-02-23 09:21:00,
2013-02-23 02:32:00,2.0,-8.0,-100.00,NW,304,6.0,13.0,61,0.00,,,0.03,0.000000,,2013-02-23 09:32:00,
2013-02-23 02:42:00,2.0,-8.0,-100.00,NW,304,6.0,13.0,61,0.00,,,0.03,0.000000,,2013-02-23 09:42:00,
2013-02-23 02:51:00,2.0,-8.0,-100.00,NW,304,6.0,13.0,61,0.00,,,0.03,0.000000,,2013-02-23 09:51:00,
2013-02-23 03:21:00,-2.0,-10.0,-100.00,ENE,63,1.0,9.0,69,0.00,,,0.03,0.000000,,2013-02-23 10:21:00,
2013-02-23 03:32:00,-2.0,-10.0,-100.00,ENE,63,1.0,9.0,69,0.00,,,0.03,0.000000,,2013-02-23 10:32:00,
2013-02-23 03:42:00,-2.0,-10.0,-100.00,ENE,63,1.0,9.0,69,0.00,,,0.03,0.000000,,2013-02-23 10:42:00,
2013-02-23 03:51:00,-2.0,-10.0,-100.00,ENE,63,1.0,9.0,69,0.00,,,0.03,0.000000,,2013-02-23 10:51:00,
2013-02-23 04:21:00,-1.0,-11.0,-100.00,ESE,121,2.0,6.0,61,0.00,,,0.03,0.000000,,2013-02-23 11:21:00,
2013-02-23 04:32:00,-1.0,-11.0,-100.00,ESE,121,2.0,6.0,61,0.00,,,0.03,0.000000,,2013-02-23 11:32:00,
2013-02-23 04:42:00,-1.0,-11.0,-100.00,ESE,121,2.0,6.0,61,0.00,,,0.03,0.000000,,2013-02-23 11:42:00,
2013-02-23 04:52:00,-1.0,-11.0,-100.00,ESE,121,2.0,6.0,61,0.00,,,0.03,0.000000,,2013-02-23 11:52:00,
2013-02-23 05:21:00,-9.0,-16.0,-100.00,ENE,63,6.0,7.0,69,0.00,,,0.03,0.000000,,2013-02-23 12:21:00,
2013-02-23 05:42:00,-9.0,-16.0,-100.00,ENE,63,6.0,7.0,69,0.00,,,0.03,0.000000,,2013-02-23 12:42:00,
2013-02-23 05:52:00,-9.0,-16.0,-100.00,ENE,63,6.0,7.0,69,0.00,,,0.03,0.000000,,2013-02-23 12:52:00,
2013-02-23 06:22:00,-6.0,-13.0,-100.00,ENE,60,4.0,8.0,71,-99.99,,,0.03,0.000000,,2013-02-23 13:22:00,
2013-02-23 06:32:00,-6.0,-13.0,-100.00,ENE,60,4.0,8.0,71,-99.99,,,0.03,0.000000,,2013-02-23 13:32:00,
2013-02-23 06:42:00,-6.0,-13.0,-100.00,ENE,60,4.0,8.0,71,-99.99,,,0.03,0.000000,,2013-02-23 13:42:00,
2013-02-23 06:52:00,-6.0,-13.0,-100.00,ENE,60,4.0,8.0,71,-99.99,,,0.03,0.000000,,2013-02-23 13:52:00,
2013-02-23 07:21:00,-10.0,-17.0,-100.00,ENE,58,6.0,8.0,71,-99.99,,,0.03,1.000000,,2013-02-23 14:21:00,
2013-02-23 08:22:00,-1.0,-11.0,-100.00,NE,50,5.0,9.0,61,-99.99,,,0.03,94.000000,,2013-02-23 15:22:00,
2013-02-23 08:32:00,-1.0,-11.0,-100.00,NE,50,5.0,9.0,61,-99.99,,,0.03,94.000000,,2013-02-23 15:32:00,
2013-02-23 08:42:00,-1.0,-11.0,-100.00,NE,50,5.0,9.0,61,-99.99,,,0.03,94.000000,,2013-02-23 15:42:00,
2013-02-23 08:51:00,-1.0,-11.0,-100.00,NE,50,5.0,9.0,61,-99.99,,,0.03,94.000000,,2013-02-23 15:51:00,
2013-02-23 09:21:00,12.0,-10.0,-100.00,NE,55,3.0,7.0,35,-99.99,,,0.04,223.000000,,2013-02-23 16:21:00,
2013-02-23 09:31:00,12.0,-10.0,-100.00,NE,55,3.0,7.0,35,-99.99,,,0.04,223.000000,,2013-02-23 16:31:00,
2013-02-23 09:42:00,12.0,-10.0,-100.00,NE,55,3.0,7.0,35,-99.99,,,0.04,223.000000,,2013-02-23 16:42:00,
2013-02-23 09:51:00,12.0,-10.0,-100.00,NE,55,3.0,7.0,35,-99.99,,,0.04,223.000000,,2013-02-23 16:51:00,
2013-02-23 10:21:00,24.0,0.0,-100.00,WSW,238,2.0,5.0,34,0.02,,,0.05,371.000000,,2013-02-23 17:21:00,
2013-02-23 10:32:00,24.0,0.0,-100.00,WSW,238,2.0,5.0,34,0.02,,,0.05,371.000000,,2013-02-23 17:32:00,
2013-02-23 11:22:00,28.0,7.0,-100.00,SSW,197,2.0,5.0,40,0.02,,,0.07,701.000000,,2013-02-23 18:22:00,
2013-02-23 11:32:00,28.0,7.0,-100.00,SSW,197,2.0,5.0,40,0.02,,,0.07,701.000000,,2013-02-23 18:32:00,
2013-02-23 12:21:00,25.0,5.0,-100.00,SSW,198,5.0,9.0,41,0.02,,,0.07,800.000000,,2013-02-23 19:21:00,
2013-02-23 12:32:00,25.0,5.0,-100.00,SSW,198,5.0,9.0,41,0.02,,,0.07,800.000000,,2013-02-23 19:32:00,
2013-02-23 12:41:00,25.0,5.0,-100.00,SSW,198,5.0,9.0,41,0.02,,,0.07,800.000000,,2013-02-23 19:41:00,
2013-02-23 12:52:00,25.0,5.0,-100.00,SSW,198,5.0,9.0,41,0.02,,,0.07,800.000000,,2013-02-23 19:52:00,
2013-02-23 13:21:00,26.0,6.0,-100.00,SSW,201,4.0,8.0,41,0.01,,,0.08,653.000000,,2013-02-23 20:21:00,
2013-02-23 13:32:00,26.0,6.0,-100.00,SSW,201,4.0,8.0,41,0.01,,,0.08,653.000000,,2013-02-23 20:32:00,
2013-02-23 13:42:00,26.0,6.0,-100.00,SSW,201,4.0,8.0,41,0.01,,,0.08,653.000000,,2013-02-23 20:42:00,
2013-02-23 13:52:00,26.0,6.0,-100.00,SSW,201,4.0,8.0,41,0.01,,,0.08,653.000000,,2013-02-23 20:52:00,
2013-02-23 14:22:00,29.0,7.0,-100.00,WSW,242,3.0,10.0,39,0.00,,,0.08,526.000000,,2013-02-23 21:22:00,
2013-02-23 14:32:00,29.0,7.0,-100.00,WSW,242,3.0,10.0,39,0.00,,,0.08,526.000000,,2013-02-23 21:32:00,
2013-02-23 15:22:00,31.0,9.0,-100.00,SW,229,5.0,14.0,39,0.00,,,0.08,639.000000,,2013-02-23 22:22:00,
2013-02-23 15:32:00,31.0,9.0,-100.00,SW,229,5.0,14.0,39,0.00,,,0.08,639.000000,,2013-02-23 22:32:00,
2013-02-23 16:21:00,29.0,8.0,-100.00,SW,230,4.0,10.0,40,-99.99,,,0.08,491.000000,,2013-02-23 23:21:00,
2013-02-23 17:22:00,22.0,10.0,-100.00,WSW,237,2.0,14.0,60,-99.99,,,0.08,145.000000,,2013-02-24 00:22:00,
2013-02-23 17:32:00,22.0,10.0,-100.00,WSW,237,2.0,14.0,60,-99.99,,,0.08,145.000000,,2013-02-24 00:32:00,
2013-02-23 17:42:00,22.0,10.0,-100.00,WSW,237,2.0,14.0,60,-99.99,,,0.08,145.000000,,2013-02-24 00:42:00,
2013-02-23 17:52:00,22.0,10.0,-100.00,WSW,237,2.0,14.0,60,-99.99,,,0.08,145.000000,,2013-02-24 00:52:00,
2013-02-23 18:22:00,18.0,9.0,-100.00,WSW,245,3.0,8.0,68,0.00,,,0.08,53.000000,,2013-02-24 01:22:00,
2013-02-23 18:31:00,18.0,9.0,-100.00,WSW,245,3.0,8.0,68,0.00,,,0.08,53.000000,,2013-02-24 01:31:00,
2013-02-23 18:42:00,18.0,9.0,-100.00,WSW,245,3.0,8.0,68,0.00,,,0.08,53.000000,,2013-02-24 01:42:00,
2013-02-23 18:51:00,18.0,9.0,-100.00,WSW,245,3.0,8.0,68,0.00,,,0.08,53.000000,,2013-02-24 01:51:00,
2013-02-23 19:21:00,17.0,7.0,-100.00,WSW,254,6.0,14.0,63,0.00,,,0.08,0.000000,,2013-02-24 02:21:00,
2013-02-23 19:32:00,17.0,7.0,-100.00,WSW,254,6.0,14.0,63,0.00,,,0.08,0.000000,,2013-02-24 02:32:00,
2013-02-23 19:42:00,17.0,7.0,-100.00,WSW,254,6.0,14.0,63,0.00,,,0.08,0.000000,,2013-02-24 02:42:00,
2013-02-23 19:52:00,17.0,7.0,-100.00,WSW,254,6.0,14.0,63,0.00,,,0.08,0.000000,,2013-02-24 02:52:00,
2013-02-23 20:21:00,16.0,7.0,-100.00,WSW,254,4.0,14.0,68,0.00,,,0.08,0.000000,,2013-02-24 03:21:00,
2013-02-23 20:32:00,16.0,7.0,-100.00,WSW,254,4.0,14.0,68,0.00,,,0.08,0.000000,,2013-02-24 03:32:00,
2013-02-23 20:42:00,16.0,7.0,-100.00,WSW,254,4.0,14.0,68,0.00,,,0.08,0.000000,,2013-02-24 03:42:00,
2013-02-23 20:52:00,16.0,7.0,-100.00,WSW,254,4.0,14.0,68,0.00,,,0.08,0.000000,,2013-02-24 03:52:00,
2013-02-23 21:21:00,13.0,9.0,-100.00,North,8,4.0,11.0,82,0.00,,,0.08,0.000000,,2013-02-24 04:21:00,
2013-02-23 21:32:00,13.0,9.0,-100.00,North,8,4.0,11.0,82,0.00,,,0.08,0.000000,,2013-02-24 04:32:00,
2013-02-23 21:42:00,13.0,9.0,-100.00,North,8,4.0,11.0,82,0.00,,,0.08,0.000000,,2013-02-24 04:42:00,
2013-02-23 21:52:00,13.0,9.0,-100.00,North,8,4.0,11.0,82,0.00,,,0.08,0.000000,,2013-02-24 04:52:00,
2013-02-23 22:22:00,13.0,9.0,-100.00,ENE,58,4.0,7.0,85,0.00,,,0.08,0.000000,,2013-02-24 05:22:00,
2013-02-23 22:32:00,13.0,9.0,-100.00,ENE,58,4.0,7.0,85,0.00,,,0.08,0.000000,,2013-02-24 05:32:00,
2013-02-23 22:42:00,13.0,9.0,-100.00,ENE,58,4.0,7.0,85,0.00,,,0.08,0.000000,,2013-02-24 05:42:00,
2013-02-23 22:52:00,13.0,9.0,-100.00,ENE,58,4.0,7.0,85,0.00,,,0.08,0.000000,,2013-02-24 05:52:00,
2013-02-23 23:21:00,15.0,11.0,-100.00,WSW,258,3.0,9.0,85,0.00,,,0.08,0.000000,,2013-02-24 06:21:00,
2013-02-23 23:32:00,15.0,11.0,-100.00,WSW,258,3.0,9.0,85,0.00,,,0.08,0.000000,,2013-02-24 06:32:00,
2013-02-23 23:42:00,15.0,11.0,-100.00,WSW,258,3.0,9.0,85,0.00,,,0.08,0.000000,,2013-02-24 06:42:00,
2013-02-23 23:52:00,15.0,11.0,-100.00,WSW,258,3.0,9.0,85,0.00,,,0.08,0.000000,,2013-02-24 06:52:00,